sensor_id;sensor_type;location;lat;lon;timestamp;P1;durP1;ratioP1;P2;durP2;ratioP2
2884;SDS011;54691;48.262;11.586;2022-07-12T00:01:59;3.25;;;1.70;;
2884;SDS011;54691;48.262;11.586;2022-07-12T00:08:56;3.00;;;2.02;;
2884;SDS011;54691;48.262;11.586;2022-07-12T00:15:53;1.90;;;1.62;;
2884;SDS011;54691;48.262;11.586;2022-07-12T00:22:50;2.60;;;1.65;;
2884;SDS011;54691;48.262;11.586;2022-07-12T00:29:47;2.50;;;1.50;;
2884;SDS011;54691;48.262;11.586;2022-07-12T00:36:44;3.10;;;1.80;;
2884;SDS011;54691;48.262;11.586;2022-07-12T00:43:41;3.30;;;2.02;;
2884;SDS011;54691;48.262;11.586;2022-07-12T00:50:38;1.60;;;1.35;;
2884;SDS011;54691;48.262;11.586;2022-07-12T00:57:36;4.25;;;2.25;;
2884;SDS011;54691;48.262;11.586;2022-07-12T01:04:34;2.80;;;1.80;;
2884;SDS011;54691;48.262;11.586;2022-07-12T01:11:31;7.37;;;1.75;;
2884;SDS011;54691;48.262;11.586;2022-07-12T01:18:28;3.35;;;1.95;;
2884;SDS011;54691;48.262;11.586;2022-07-12T01:25:26;4.03;;;1.90;;
2884;SDS011;54691;48.262;11.586;2022-07-12T01:32:25;2.70;;;1.90;;
2884;SDS011;54691;48.262;11.586;2022-07-12T01:39:22;2.22;;;1.80;;
2884;SDS011;54691;48.262;11.586;2022-07-12T01:46:19;2.77;;;1.98;;
2884;SDS011;54691;48.262;11.586;2022-07-12T01:53:16;2.95;;;2.22;;
2884;SDS011;54691;48.262;11.586;2022-07-12T02:00:13;3.17;;;2.25;;
2884;SDS011;54691;48.262;11.586;2022-07-12T02:07:10;4.08;;;2.22;;
2884;SDS011;54691;48.262;11.586;2022-07-12T02:14:08;4.15;;;2.20;;
2884;SDS011;54691;48.262;11.586;2022-07-12T02:21:05;3.12;;;1.98;;
2884;SDS011;54691;48.262;11.586;2022-07-12T02:28:02;4.12;;;2.65;;
2884;SDS011;54691;48.262;11.586;2022-07-12T02:34:59;5.65;;;2.58;;
2884;SDS011;54691;48.262;11.586;2022-07-12T02:41:56;9.98;;;2.80;;
2884;SDS011;54691;48.262;11.586;2022-07-12T02:48:53;3.83;;;2.70;;
2884;SDS011;54691;48.262;11.586;2022-07-12T02:55:50;4.92;;;2.95;;
2884;SDS011;54691;48.262;11.586;2022-07-12T03:02:47;4.78;;;2.87;;
2884;SDS011;54691;48.262;11.586;2022-07-12T03:09:44;7.95;;;2.90;;
2884;SDS011;54691;48.262;11.586;2022-07-12T03:16:41;4.92;;;2.83;;
2884;SDS011;54691;48.262;11.586;2022-07-12T03:23:39;4.62;;;2.55;;
2884;SDS011;54691;48.262;11.586;2022-07-12T03:30:36;3.25;;;2.52;;
2884;SDS011;54691;48.262;11.586;2022-07-12T03:41:19;4.72;;;3.05;;
2884;SDS011;54691;48.262;11.586;2022-07-12T03:48:17;5.50;;;2.83;;
2884;SDS011;54691;48.262;11.586;2022-07-12T03:55:14;3.75;;;2.70;;
2884;SDS011;54691;48.262;11.586;2022-07-12T04:02:11;4.75;;;3.02;;
2884;SDS011;54691;48.262;11.586;2022-07-12T04:09:09;5.15;;;2.77;;
2884;SDS011;54691;48.262;11.586;2022-07-12T04:16:07;4.50;;;2.83;;
2884;SDS011;54691;48.262;11.586;2022-07-12T04:23:04;4.25;;;3.00;;
2884;SDS011;54691;48.262;11.586;2022-07-12T04:30:01;6.80;;;2.77;;
2884;SDS011;54691;48.262;11.586;2022-07-12T04:36:58;8.78;;;2.72;;
2884;SDS011;54691;48.262;11.586;2022-07-12T04:43:55;3.58;;;2.60;;
2884;SDS011;54691;48.262;11.586;2022-07-12T04:50:53;4.12;;;2.77;;
2884;SDS011;54691;48.262;11.586;2022-07-12T04:57:50;4.90;;;2.25;;
2884;SDS011;54691;48.262;11.586;2022-07-12T05:04:47;3.83;;;2.67;;
2884;SDS011;54691;48.262;11.586;2022-07-12T05:11:44;3.47;;;2.33;;
2884;SDS011;54691;48.262;11.586;2022-07-12T05:18:41;3.92;;;2.72;;
2884;SDS011;54691;48.262;11.586;2022-07-12T05:25:38;5.58;;;2.27;;
2884;SDS011;54691;48.262;11.586;2022-07-12T05:32:35;6.70;;;2.60;;
2884;SDS011;54691;48.262;11.586;2022-07-12T05:39:33;1.75;;;1.47;;
2884;SDS011;54691;48.262;11.586;2022-07-12T05:46:30;2.02;;;0.90;;
2884;SDS011;54691;48.262;11.586;2022-07-12T05:53:26;0.65;;;0.60;;
2884;SDS011;54691;48.262;11.586;2022-07-12T06:00:23;1.22;;;0.68;;
2884;SDS011;54691;48.262;11.586;2022-07-12T06:07:21;1.50;;;0.60;;
2884;SDS011;54691;48.262;11.586;2022-07-12T06:14:18;0.30;;;0.30;;
2884;SDS011;54691;48.262;11.586;2022-07-12T06:21:15;1.50;;;0.70;;
2884;SDS011;54691;48.262;11.586;2022-07-12T06:28:12;1.05;;;0.70;;
2884;SDS011;54691;48.262;11.586;2022-07-12T06:35:09;0.88;;;0.47;;
2884;SDS011;54691;48.262;11.586;2022-07-12T06:42:06;1.35;;;0.70;;
2884;SDS011;54691;48.262;11.586;2022-07-12T06:49:03;0.62;;;0.60;;
2884;SDS011;54691;48.262;11.586;2022-07-12T06:56:00;0.88;;;0.68;;
2884;SDS011;54691;48.262;11.586;2022-07-12T07:02:57;0.62;;;0.62;;
2884;SDS011;54691;48.262;11.586;2022-07-12T07:09:54;1.35;;;0.60;;
2884;SDS011;54691;48.262;11.586;2022-07-12T07:16:52;0.98;;;0.30;;
2884;SDS011;54691;48.262;11.586;2022-07-12T07:23:50;0.30;;;0.30;;
2884;SDS011;54691;48.262;11.586;2022-07-12T07:30:47;0.65;;;0.40;;
2884;SDS011;54691;48.262;11.586;2022-07-12T07:41:20;0.20;;;0.20;;
2884;SDS011;54691;48.262;11.586;2022-07-12T07:48:17;1.10;;;0.35;;
2884;SDS011;54691;48.262;11.586;2022-07-12T07:55:14;2.37;;;0.50;;
2884;SDS011;54691;48.262;11.586;2022-07-12T08:02:11;0.20;;;0.20;;
2884;SDS011;54691;48.262;11.586;2022-07-12T08:09:08;4.65;;;0.23;;
2884;SDS011;54691;48.262;11.586;2022-07-12T08:16:05;0.50;;;0.33;;
2884;SDS011;54691;48.262;11.586;2022-07-12T08:23:02;0.23;;;0.23;;
2884;SDS011;54691;48.262;11.586;2022-07-12T08:29:59;0.42;;;0.30;;
2884;SDS011;54691;48.262;11.586;2022-07-12T08:36:56;1.45;;;0.50;;
2884;SDS011;54691;48.262;11.586;2022-07-12T08:43:53;0.53;;;0.42;;
2884;SDS011;54691;48.262;11.586;2022-07-12T08:51:00;0.37;;;0.37;;
2884;SDS011;54691;48.262;11.586;2022-07-12T08:54:38;2.15;;;0.50;;
2884;SDS011;54691;48.262;11.586;2022-07-12T09:01:39;2.60;;;0.57;;
2884;SDS011;54691;48.262;11.586;2022-07-12T09:05:09;2.20;;;0.50;;
2884;SDS011;54691;48.262;11.586;2022-07-12T09:12:06;0.40;;;0.40;;
2884;SDS011;54691;48.262;11.586;2022-07-12T09:19:16;0.30;;;0.30;;
2884;SDS011;54691;48.262;11.586;2022-07-12T09:22:50;0.60;;;0.30;;
2884;SDS011;54691;48.262;11.586;2022-07-12T09:29:51;0.62;;;0.60;;
2884;SDS011;54691;48.262;11.586;2022-07-12T09:37:02;0.72;;;0.60;;
2884;SDS011;54691;48.262;11.586;2022-07-12T09:43:59;2.62;;;0.20;;
2884;SDS011;54691;48.262;11.586;2022-07-12T09:50:57;0.37;;;0.35;;
2884;SDS011;54691;48.262;11.586;2022-07-12T09:57:55;0.30;;;0.30;;
2884;SDS011;54691;48.262;11.586;2022-07-12T10:04:53;0.57;;;0.40;;
2884;SDS011;54691;48.262;11.586;2022-07-12T10:11:50;0.20;;;0.20;;
2884;SDS011;54691;48.262;11.586;2022-07-12T10:18:48;1.37;;;0.40;;
2884;SDS011;54691;48.262;11.586;2022-07-12T10:25:47;3.37;;;0.40;;
2884;SDS011;54691;48.262;11.586;2022-07-12T10:32:44;1.07;;;0.50;;
2884;SDS011;54691;48.262;11.586;2022-07-12T10:39:42;0.30;;;0.20;;
2884;SDS011;54691;48.262;11.586;2022-07-12T10:46:56;1.95;;;0.30;;
2884;SDS011;54691;48.262;11.586;2022-07-12T10:53:39;0.20;;;0.20;;
2884;SDS011;54691;48.262;11.586;2022-07-12T11:00:37;0.50;;;0.20;;
2884;SDS011;54691;48.262;11.586;2022-07-12T11:07:35;0.30;;;0.30;;
2884;SDS011;54691;48.262;11.586;2022-07-12T11:14:32;0.35;;;0.35;;
2884;SDS011;54691;48.262;11.586;2022-07-12T11:21:31;0.50;;;0.30;;
2884;SDS011;54691;48.262;11.586;2022-07-12T11:28:28;1.42;;;0.20;;
2884;SDS011;54691;48.262;11.586;2022-07-12T11:35:25;0.88;;;0.30;;
2884;SDS011;54691;48.262;11.586;2022-07-12T11:42:23;0.20;;;0.20;;
2884;SDS011;54691;48.262;11.586;2022-07-12T11:49:21;0.70;;;0.45;;
2884;SDS011;54691;48.262;11.586;2022-07-12T11:56:18;2.50;;;0.60;;
2884;SDS011;54691;48.262;11.586;2022-07-12T12:03:17;0.40;;;0.40;;
2884;SDS011;54691;48.262;11.586;2022-07-12T12:10:14;0.20;;;0.20;;
2884;SDS011;54691;48.262;11.586;2022-07-12T12:17:12;0.57;;;0.30;;
2884;SDS011;54691;48.262;11.586;2022-07-12T12:24:09;0.85;;;0.30;;
2884;SDS011;54691;48.262;11.586;2022-07-12T12:31:08;0.30;;;0.20;;
2884;SDS011;54691;48.262;11.586;2022-07-12T12:38:12;0.68;;;0.37;;
2884;SDS011;54691;48.262;11.586;2022-07-12T12:41:46;2.60;;;0.30;;
2884;SDS011;54691;48.262;11.586;2022-07-12T12:48:47;1.72;;;0.30;;
2884;SDS011;54691;48.262;11.586;2022-07-12T12:55:45;0.20;;;0.20;;
2884;SDS011;54691;48.262;11.586;2022-07-12T13:02:42;0.20;;;0.20;;
2884;SDS011;54691;48.262;11.586;2022-07-12T13:09:40;3.42;;;0.40;;
2884;SDS011;54691;48.262;11.586;2022-07-12T13:16:37;0.20;;;0.20;;
2884;SDS011;54691;48.262;11.586;2022-07-12T13:23:35;0.13;;;0.13;;
2884;SDS011;54691;48.262;11.586;2022-07-12T13:30:36;0.30;;;0.30;;
2884;SDS011;54691;48.262;11.586;2022-07-12T13:37:33;0.20;;;0.20;;
2884;SDS011;54691;48.262;11.586;2022-07-12T13:44:31;1.57;;;0.40;;
2884;SDS011;54691;48.262;11.586;2022-07-12T13:51:28;0.50;;;0.33;;
2884;SDS011;54691;48.262;11.586;2022-07-12T13:58:25;0.30;;;0.30;;
2884;SDS011;54691;48.262;11.586;2022-07-12T14:05:23;0.90;;;0.40;;
2884;SDS011;54691;48.262;11.586;2022-07-12T14:12:20;0.40;;;0.20;;
2884;SDS011;54691;48.262;11.586;2022-07-12T14:19:17;0.55;;;0.40;;
2884;SDS011;54691;48.262;11.586;2022-07-12T14:26:14;0.30;;;0.30;;
2884;SDS011;54691;48.262;11.586;2022-07-12T14:33:14;0.90;;;0.30;;
2884;SDS011;54691;48.262;11.586;2022-07-12T14:40:12;1.55;;;0.60;;
2884;SDS011;54691;48.262;11.586;2022-07-12T14:47:09;0.37;;;0.37;;
2884;SDS011;54691;48.262;11.586;2022-07-12T14:54:07;0.50;;;0.50;;
2884;SDS011;54691;48.262;11.586;2022-07-12T15:01:04;0.57;;;0.57;;
2884;SDS011;54691;48.262;11.586;2022-07-12T15:08:01;2.08;;;0.70;;
2884;SDS011;54691;48.262;11.586;2022-07-12T15:14:58;1.12;;;0.60;;
2884;SDS011;54691;48.262;11.586;2022-07-12T15:21:57;0.93;;;0.68;;
2884;SDS011;54691;48.262;11.586;2022-07-12T15:28:55;0.60;;;0.60;;
2884;SDS011;54691;48.262;11.586;2022-07-12T15:35:53;0.88;;;0.70;;
2884;SDS011;54691;48.262;11.586;2022-07-12T15:42:50;0.90;;;0.90;;
2884;SDS011;54691;48.262;11.586;2022-07-12T15:49:47;2.70;;;0.70;;
2884;SDS011;54691;48.262;11.586;2022-07-12T16:00:24;0.85;;;0.70;;
2884;SDS011;54691;48.262;11.586;2022-07-12T16:07:22;0.62;;;0.60;;
2884;SDS011;54691;48.262;11.586;2022-07-12T16:14:23;3.08;;;0.33;;
2884;SDS011;54691;48.262;11.586;2022-07-12T16:21:26;5.10;;;0.55;;
2884;SDS011;54691;48.262;11.586;2022-07-12T16:28:31;0.55;;;0.50;;
2884;SDS011;54691;48.262;11.586;2022-07-12T16:35:24;0.65;;;0.60;;
2884;SDS011;54691;48.262;11.586;2022-07-12T16:42:23;1.45;;;0.60;;
2884;SDS011;54691;48.262;11.586;2022-07-12T16:49:20;2.80;;;0.50;;
2884;SDS011;54691;48.262;11.586;2022-07-12T16:56:21;0.60;;;0.60;;
2884;SDS011;54691;48.262;11.586;2022-07-12T17:03:22;0.50;;;0.50;;
2884;SDS011;54691;48.262;11.586;2022-07-12T17:10:20;2.62;;;0.57;;
2884;SDS011;54691;48.262;11.586;2022-07-12T17:17:17;0.75;;;0.50;;
2884;SDS011;54691;48.262;11.586;2022-07-12T17:24:14;6.25;;;0.60;;
2884;SDS011;54691;48.262;11.586;2022-07-12T17:31:13;0.50;;;0.50;;
2884;SDS011;54691;48.262;11.586;2022-07-12T17:38:11;3.87;;;0.40;;
2884;SDS011;54691;48.262;11.586;2022-07-12T17:45:09;2.83;;;0.68;;
2884;SDS011;54691;48.262;11.586;2022-07-12T17:52:08;4.58;;;0.40;;
2884;SDS011;54691;48.262;11.586;2022-07-12T17:59:05;0.20;;;0.20;;
2884;SDS011;54691;48.262;11.586;2022-07-12T18:06:02;0.35;;;0.33;;
2884;SDS011;54691;48.262;11.586;2022-07-12T18:12:59;0.30;;;0.30;;
2884;SDS011;54691;48.262;11.586;2022-07-12T18:16:46;1.82;;;0.30;;
2884;SDS011;54691;48.262;11.586;2022-07-12T18:23:44;0.33;;;0.20;;
2884;SDS011;54691;48.262;11.586;2022-07-12T18:30:42;0.88;;;0.30;;
2884;SDS011;54691;48.262;11.586;2022-07-12T18:37:39;1.00;;;0.30;;
2884;SDS011;54691;48.262;11.586;2022-07-12T18:44:36;0.30;;;0.30;;
2884;SDS011;54691;48.262;11.586;2022-07-12T18:51:34;0.78;;;0.50;;
2884;SDS011;54691;48.262;11.586;2022-07-12T18:58:31;2.27;;;0.20;;
2884;SDS011;54691;48.262;11.586;2022-07-12T19:05:29;5.33;;;0.50;;
2884;SDS011;54691;48.262;11.586;2022-07-12T19:12:26;0.30;;;0.30;;
2884;SDS011;54691;48.262;11.586;2022-07-12T19:19:25;1.57;;;0.40;;
2884;SDS011;54691;48.262;11.586;2022-07-12T19:26:22;1.47;;;0.62;;
2884;SDS011;54691;48.262;11.586;2022-07-12T19:33:19;0.35;;;0.35;;
2884;SDS011;54691;48.262;11.586;2022-07-12T19:40:16;3.40;;;0.47;;
2884;SDS011;54691;48.262;11.586;2022-07-12T19:47:14;2.45;;;0.70;;
2884;SDS011;54691;48.262;11.586;2022-07-12T19:54:12;1.05;;;0.40;;
2884;SDS011;54691;48.262;11.586;2022-07-12T20:01:09;3.02;;;0.53;;
2884;SDS011;54691;48.262;11.586;2022-07-12T20:08:09;1.65;;;0.88;;
2884;SDS011;54691;48.262;11.586;2022-07-12T20:19:04;1.87;;;0.50;;
2884;SDS011;54691;48.262;11.586;2022-07-12T20:26:01;5.15;;;0.50;;
2884;SDS011;54691;48.262;11.586;2022-07-12T20:32:59;1.32;;;0.72;;
2884;SDS011;54691;48.262;11.586;2022-07-12T20:36:46;3.77;;;1.47;;
2884;SDS011;54691;48.262;11.586;2022-07-12T20:43:43;14.23;;;4.10;;
2884;SDS011;54691;48.262;11.586;2022-07-12T20:50:40;16.30;;;5.40;;
2884;SDS011;54691;48.262;11.586;2022-07-12T20:57:37;20.23;;;7.35;;
2884;SDS011;54691;48.262;11.586;2022-07-12T21:04:35;17.52;;;5.30;;
2884;SDS011;54691;48.262;11.586;2022-07-12T21:11:34;16.30;;;5.65;;
2884;SDS011;54691;48.262;11.586;2022-07-12T21:18:31;17.05;;;6.37;;
2884;SDS011;54691;48.262;11.586;2022-07-12T21:25:28;16.80;;;5.17;;
2884;SDS011;54691;48.262;11.586;2022-07-12T21:32:25;8.60;;;2.00;;
2884;SDS011;54691;48.262;11.586;2022-07-12T21:39:23;3.70;;;1.37;;
2884;SDS011;54691;48.262;11.586;2022-07-12T21:46:20;1.75;;;1.17;;
2884;SDS011;54691;48.262;11.586;2022-07-12T21:53:17;2.05;;;1.27;;
2884;SDS011;54691;48.262;11.586;2022-07-12T22:00:17;1.32;;;0.80;;
2884;SDS011;54691;48.262;11.586;2022-07-12T22:07:16;1.12;;;0.65;;
2884;SDS011;54691;48.262;11.586;2022-07-12T22:14:12;1.80;;;0.70;;
2884;SDS011;54691;48.262;11.586;2022-07-12T22:21:10;3.08;;;0.90;;
2884;SDS011;54691;48.262;11.586;2022-07-12T22:28:07;2.47;;;0.70;;
2884;SDS011;54691;48.262;11.586;2022-07-12T22:35:05;3.42;;;0.62;;
2884;SDS011;54691;48.262;11.586;2022-07-12T22:42:02;2.45;;;0.80;;
2884;SDS011;54691;48.262;11.586;2022-07-12T22:48:59;1.85;;;0.78;;
2884;SDS011;54691;48.262;11.586;2022-07-12T22:55:56;4.42;;;0.85;;
2884;SDS011;54691;48.262;11.586;2022-07-12T23:02:53;3.33;;;0.80;;
2884;SDS011;54691;48.262;11.586;2022-07-12T23:09:50;0.50;;;0.50;;
2884;SDS011;54691;48.262;11.586;2022-07-12T23:16:47;5.00;;;0.75;;
2884;SDS011;54691;48.262;11.586;2022-07-12T23:23:45;3.12;;;0.78;;
2884;SDS011;54691;48.262;11.586;2022-07-12T23:30:42;2.75;;;0.90;;
2884;SDS011;54691;48.262;11.586;2022-07-12T23:37:39;1.42;;;0.70;;
2884;SDS011;54691;48.262;11.586;2022-07-12T23:44:36;0.65;;;0.60;;
2884;SDS011;54691;48.262;11.586;2022-07-12T23:51:33;2.15;;;0.70;;
2884;SDS011;54691;48.262;11.586;2022-07-12T23:58:30;1.60;;;0.57;;
